WAT2502 UKBB-LUKK
Flight info
| Callsign | WAT2502 |
|---|---|
| Flight time | 0h 41m |
| Altitude | 30000 |
| Route | BASOR M856 SULUM N145 LAVDA/K0889F290 Z888 MURKA |
| Aircraft | MD11/H-SDE1E2E3FGHIJ2J3J4J5M1RWXY/LB1D1 |
Departure
| Time | 2026-05-05 18:12 |
|---|---|
| Airport | Boryspil International Airport (UKBB) |
Arrival
| Time | 2026-05-05 18:53 |
|---|---|
| Airport | Chişinău International Airport (LUKK) |
| Time | Latitude | Longitude | Altitude | Speed | Heading |
|---|---|---|---|---|---|
| 2026-05-05 17:41 | 50.34638 | 30.88716 | 437 ft | 0 kts | 272° |
| 2026-05-05 17:59 | 50.34636 | 30.88746 | 422 ft | 4 kts | 283° |
| 2026-05-05 17:59 | 50.34628 | 30.88785 | 422 ft | 4 kts | 299° |
| 2026-05-05 17:59 | 50.34618 | 30.88812 | 422 ft | 0 kts | 303° |
| 2026-05-05 18:04 | 50.34619 | 30.88810 | 435 ft | 0 kts | 304° |
| 2026-05-05 18:04 | 50.34628 | 30.88796 | 426 ft | 11 kts | 314° |
| 2026-05-05 18:05 | 50.34733 | 30.88776 | 428 ft | 19 kts | 5° |
| 2026-05-05 18:05 | 50.34866 | 30.88803 | 424 ft | 19 kts | 7° |
| 2026-05-05 18:05 | 50.34978 | 30.88811 | 425 ft | 15 kts | 359° |
| 2026-05-05 18:05 | 50.35055 | 30.88744 | 425 ft | 12 kts | 313° |
| 2026-05-05 18:06 | 50.35110 | 30.88666 | 424 ft | 8 kts | 324° |
| 2026-05-05 18:06 | 50.35132 | 30.88636 | 423 ft | 5 kts | 318° |
| 2026-05-05 18:06 | 50.35159 | 30.88598 | 428 ft | 4 kts | 318° |
| 2026-05-05 18:06 | 50.35182 | 30.88547 | 425 ft | 8 kts | 296° |
| 2026-05-05 18:07 | 50.35195 | 30.88448 | 430 ft | 9 kts | 274° |
| 2026-05-05 18:07 | 50.35196 | 30.88429 | 422 ft | 0 kts | 274° |
| 2026-05-05 18:09 | 50.35196 | 30.88428 | 435 ft | 1 kts | 274° |
| 2026-05-05 18:09 | 50.35198 | 30.88381 | 430 ft | 7 kts | 274° |
| 2026-05-05 18:09 | 50.35200 | 30.88301 | 429 ft | 7 kts | 272° |
| 2026-05-05 18:09 | 50.35202 | 30.88223 | 435 ft | 7 kts | 272° |
| 2026-05-05 18:10 | 50.35191 | 30.88167 | 425 ft | 5 kts | 233° |
| 2026-05-05 18:10 | 50.35163 | 30.88151 | 428 ft | 5 kts | 186° |
| 2026-05-05 18:10 | 50.35135 | 30.88150 | 432 ft | 0 kts | 182° |
| 2026-05-05 18:11 | 50.35133 | 30.88150 | 422 ft | 0 kts | 182° |
| 2026-05-05 18:11 | 50.35092 | 30.88148 | 421 ft | 18 kts | 181° |
| 2026-05-05 18:11 | 50.34676 | 30.88123 | 423 ft | 103 kts | 183° |
| 2026-05-05 18:11 | 50.33703 | 30.88046 | 440 ft | 172 kts | 182° |
| 2026-05-05 18:12 | 50.32502 | 30.87954 | 1155 ft | 173 kts | 184° |
| 2026-05-05 18:12 | 50.31297 | 30.87821 | 2045 ft | 173 kts | 190° |
| 2026-05-05 18:12 | 50.30107 | 30.87332 | 2795 ft | 180 kts | 204° |
| 2026-05-05 18:12 | 50.28991 | 30.86409 | 3550 ft | 183 kts | 212° |
| 2026-05-05 18:13 | 50.27824 | 30.85309 | 3860 ft | 212 kts | 213° |
| 2026-05-05 18:13 | 50.26493 | 30.84025 | 4027 ft | 237 kts | 213° |
| 2026-05-05 18:13 | 50.25041 | 30.82620 | 4330 ft | 251 kts | 213° |
| 2026-05-05 18:13 | 50.23516 | 30.81159 | 4809 ft | 262 kts | 213° |
| 2026-05-05 18:14 | 50.21939 | 30.79622 | 5364 ft | 271 kts | 213° |
| 2026-05-05 18:14 | 50.20339 | 30.78038 | 6084 ft | 274 kts | 214° |
| 2026-05-05 18:14 | 50.18695 | 30.76511 | 6776 ft | 277 kts | 206° |
| 2026-05-05 18:14 | 50.16843 | 30.75590 | 7458 ft | 283 kts | 190° |
| 2026-05-05 18:15 | 50.14856 | 30.75680 | 8146 ft | 291 kts | 169° |
| 2026-05-05 18:15 | 50.12955 | 30.76827 | 8844 ft | 296 kts | 155° |
| 2026-05-05 18:15 | 50.11120 | 30.78322 | 9577 ft | 299 kts | 153° |
| 2026-05-05 18:15 | 50.09278 | 30.79886 | 10209 ft | 306 kts | 153° |
| 2026-05-05 18:16 | 50.07315 | 30.81506 | 10353 ft | 331 kts | 155° |
| 2026-05-05 18:16 | 50.05089 | 30.82748 | 10487 ft | 351 kts | 171° |
| 2026-05-05 18:16 | 50.02594 | 30.82858 | 10709 ft | 366 kts | 188° |
| 2026-05-05 18:16 | 50.00064 | 30.82247 | 11370 ft | 371 kts | 192° |
| 2026-05-05 18:17 | 49.97517 | 30.81439 | 12041 ft | 376 kts | 193° |
| 2026-05-05 18:17 | 49.94942 | 30.80594 | 12738 ft | 380 kts | 192° |
| 2026-05-05 18:17 | 49.92361 | 30.79770 | 13405 ft | 386 kts | 191° |
| 2026-05-05 18:17 | 49.89718 | 30.78957 | 14070 ft | 389 kts | 191° |
| 2026-05-05 18:18 | 49.87047 | 30.78160 | 14708 ft | 392 kts | 190° |
| 2026-05-05 18:18 | 49.84348 | 30.77370 | 15317 ft | 396 kts | 190° |
| 2026-05-05 18:18 | 49.81627 | 30.76584 | 15958 ft | 399 kts | 190° |
| 2026-05-05 18:18 | 49.78884 | 30.75796 | 16567 ft | 403 kts | 190° |
| 2026-05-05 18:19 | 49.76110 | 30.75001 | 17173 ft | 407 kts | 189° |
| 2026-05-05 18:19 | 49.73316 | 30.74202 | 17771 ft | 410 kts | 189° |
| 2026-05-05 18:19 | 49.70495 | 30.73396 | 18342 ft | 414 kts | 189° |
| 2026-05-05 18:19 | 49.67649 | 30.72584 | 18832 ft | 418 kts | 189° |
| 2026-05-05 18:20 | 49.64782 | 30.71767 | 19359 ft | 420 kts | 189° |
| 2026-05-05 18:20 | 49.61898 | 30.70946 | 19899 ft | 423 kts | 189° |
| 2026-05-05 18:20 | 49.59000 | 30.70107 | 20421 ft | 425 kts | 191° |
| 2026-05-05 18:20 | 49.56150 | 30.68854 | 20921 ft | 429 kts | 201° |
| 2026-05-05 18:21 | 49.53547 | 30.66594 | 21444 ft | 432 kts | 216° |
| 2026-05-05 18:21 | 49.51226 | 30.63617 | 21898 ft | 437 kts | 222° |
| 2026-05-05 18:21 | 49.49041 | 30.60371 | 22408 ft | 440 kts | 224° |
| 2026-05-05 18:21 | 49.46869 | 30.57038 | 22910 ft | 443 kts | 224° |
| 2026-05-05 18:22 | 49.44670 | 30.53707 | 23432 ft | 445 kts | 223° |
| 2026-05-05 18:22 | 49.42434 | 30.50396 | 23877 ft | 448 kts | 223° |
| 2026-05-05 18:22 | 49.40160 | 30.47097 | 24300 ft | 450 kts | 222° |
| 2026-05-05 18:22 | 49.37864 | 30.43813 | 24772 ft | 452 kts | 222° |
| 2026-05-05 18:23 | 49.35548 | 30.40524 | 25217 ft | 455 kts | 222° |
| 2026-05-05 18:23 | 49.33247 | 30.37269 | 25656 ft | 457 kts | 222° |
| 2026-05-05 18:23 | 49.30900 | 30.33957 | 26111 ft | 460 kts | 222° |
| 2026-05-05 18:23 | 49.28536 | 30.30639 | 26550 ft | 462 kts | 222° |
| 2026-05-05 18:24 | 49.26154 | 30.27310 | 26983 ft | 465 kts | 222° |
| 2026-05-05 18:24 | 49.23757 | 30.23963 | 27413 ft | 468 kts | 222° |
| 2026-05-05 18:24 | 49.21349 | 30.20602 | 27811 ft | 471 kts | 222° |
| 2026-05-05 18:24 | 49.18923 | 30.17216 | 28217 ft | 473 kts | 222° |
| 2026-05-05 18:25 | 49.16488 | 30.13819 | 28613 ft | 476 kts | 222° |
| 2026-05-05 18:25 | 49.15660 | 30.12665 | 28772 ft | 476 kts | 222° |
| 2026-05-05 18:25 | 49.11573 | 30.06974 | 29411 ft | 481 kts | 222° |
| 2026-05-05 18:25 | 49.09093 | 30.03528 | 29782 ft | 483 kts | 222° |
| 2026-05-05 18:26 | 49.06589 | 30.00053 | 29913 ft | 490 kts | 222° |
| 2026-05-05 18:26 | 49.01534 | 29.93053 | 29934 ft | 491 kts | 222° |
| 2026-05-05 18:27 | 48.96487 | 29.86091 | 29937 ft | 489 kts | 222° |
| 2026-05-05 18:27 | 48.91442 | 29.79153 | 29937 ft | 489 kts | 222° |
| 2026-05-05 18:28 | 48.83871 | 29.68738 | 29943 ft | 490 kts | 222° |
| 2026-05-05 18:28 | 48.78823 | 29.61809 | 29943 ft | 489 kts | 222° |
| 2026-05-05 18:29 | 48.73778 | 29.54905 | 29945 ft | 488 kts | 222° |
| 2026-05-05 18:29 | 48.68733 | 29.48022 | 29945 ft | 488 kts | 222° |
| 2026-05-05 18:30 | 48.63683 | 29.41150 | 29945 ft | 489 kts | 222° |
| 2026-05-05 18:30 | 48.58653 | 29.34326 | 29953 ft | 489 kts | 221° |
| 2026-05-05 18:31 | 48.53580 | 29.27463 | 29951 ft | 490 kts | 221° |
| 2026-05-05 18:31 | 48.48505 | 29.20616 | 29947 ft | 489 kts | 221° |
| 2026-05-05 18:32 | 48.43438 | 29.13798 | 29949 ft | 489 kts | 221° |
| 2026-05-05 18:32 | 48.38361 | 29.06987 | 29948 ft | 488 kts | 221° |
| 2026-05-05 18:33 | 48.33388 | 29.00377 | 29950 ft | 488 kts | 221° |
| 2026-05-05 18:33 | 48.28295 | 28.93633 | 29958 ft | 488 kts | 221° |
| 2026-05-05 18:34 | 48.23249 | 28.86933 | 29954 ft | 487 kts | 221° |
| 2026-05-05 18:34 | 48.20741 | 28.83604 | 29956 ft | 476 kts | 221° |
| 2026-05-05 18:34 | 48.18253 | 28.80327 | 29432 ft | 478 kts | 220° |
| 2026-05-05 18:35 | 48.16545 | 28.78276 | 29017 ft | 473 kts | 216° |
| 2026-05-05 18:35 | 48.13763 | 28.75703 | 28273 ft | 466 kts | 205° |
| 2026-05-05 18:35 | 48.10739 | 28.74071 | 27623 ft | 460 kts | 192° |
| 2026-05-05 18:35 | 48.07595 | 28.73477 | 27017 ft | 453 kts | 179° |
| 2026-05-05 18:36 | 48.04462 | 28.73675 | 26425 ft | 449 kts | 173° |
| 2026-05-05 18:36 | 48.01376 | 28.74200 | 25859 ft | 444 kts | 171° |
| 2026-05-05 18:36 | 47.98336 | 28.74798 | 25277 ft | 440 kts | 171° |
| 2026-05-05 18:36 | 47.95311 | 28.75372 | 24713 ft | 436 kts | 171° |
| 2026-05-05 18:37 | 47.92307 | 28.75894 | 24150 ft | 433 kts | 171° |
| 2026-05-05 18:37 | 47.89326 | 28.76370 | 23589 ft | 429 kts | 172° |
| 2026-05-05 18:37 | 47.86369 | 28.76815 | 22943 ft | 425 kts | 172° |
| 2026-05-05 18:37 | 47.83434 | 28.77243 | 22361 ft | 422 kts | 172° |
| 2026-05-05 18:38 | 47.80519 | 28.77662 | 21794 ft | 419 kts | 172° |
| 2026-05-05 18:38 | 47.77626 | 28.78075 | 21244 ft | 417 kts | 172° |
| 2026-05-05 18:38 | 47.74746 | 28.78487 | 20700 ft | 414 kts | 172° |
| 2026-05-05 18:38 | 47.71887 | 28.78895 | 20160 ft | 412 kts | 172° |
| 2026-05-05 18:39 | 47.69038 | 28.79302 | 19619 ft | 410 kts | 172° |
| 2026-05-05 18:39 | 47.66210 | 28.79706 | 19086 ft | 407 kts | 172° |
| 2026-05-05 18:39 | 47.63399 | 28.80107 | 18550 ft | 405 kts | 172° |
| 2026-05-05 18:39 | 47.60605 | 28.80505 | 17990 ft | 403 kts | 172° |
| 2026-05-05 18:40 | 47.57826 | 28.80900 | 17443 ft | 400 kts | 172° |
| 2026-05-05 18:40 | 47.55056 | 28.81005 | 16879 ft | 399 kts | 184° |
| 2026-05-05 18:40 | 47.52365 | 28.80017 | 16342 ft | 400 kts | 200° |
| 2026-05-05 18:40 | 47.49868 | 28.78224 | 15805 ft | 398 kts | 208° |
| 2026-05-05 18:41 | 47.47480 | 28.76162 | 15280 ft | 396 kts | 210° |
| 2026-05-05 18:41 | 47.45130 | 28.74060 | 14732 ft | 393 kts | 210° |
| 2026-05-05 18:41 | 47.42790 | 28.71996 | 14225 ft | 390 kts | 209° |
| 2026-05-05 18:41 | 47.40455 | 28.69987 | 13695 ft | 387 kts | 208° |
| 2026-05-05 18:42 | 47.38154 | 28.68048 | 13128 ft | 384 kts | 208° |
| 2026-05-05 18:42 | 47.35835 | 28.66121 | 12607 ft | 381 kts | 208° |
| 2026-05-05 18:42 | 47.33532 | 28.64223 | 12093 ft | 378 kts | 208° |
| 2026-05-05 18:42 | 47.31245 | 28.62346 | 11600 ft | 375 kts | 208° |
| 2026-05-05 18:43 | 47.28975 | 28.60489 | 11139 ft | 371 kts | 208° |
| 2026-05-05 18:43 | 47.26739 | 28.58661 | 10857 ft | 360 kts | 208° |
| 2026-05-05 18:43 | 47.24609 | 28.56922 | 10742 ft | 340 kts | 208° |
| 2026-05-05 18:43 | 47.22598 | 28.55281 | 10608 ft | 321 kts | 208° |
| 2026-05-05 18:44 | 47.20695 | 28.53729 | 10499 ft | 305 kts | 208° |
| 2026-05-05 18:44 | 47.18850 | 28.52226 | 10291 ft | 305 kts | 208° |
| 2026-05-05 18:44 | 47.16990 | 28.50713 | 9856 ft | 306 kts | 208° |
| 2026-05-05 18:44 | 47.15133 | 28.49204 | 9353 ft | 304 kts | 208° |
| 2026-05-05 18:45 | 47.13290 | 28.47706 | 8865 ft | 301 kts | 208° |
| 2026-05-05 18:45 | 47.11468 | 28.46227 | 8406 ft | 297 kts | 208° |
| 2026-05-05 18:45 | 47.09671 | 28.44769 | 7964 ft | 294 kts | 209° |
| 2026-05-05 18:45 | 47.07894 | 28.43329 | 7538 ft | 290 kts | 209° |
| 2026-05-05 18:46 | 47.06124 | 28.41970 | 7129 ft | 284 kts | 202° |
| 2026-05-05 18:46 | 47.04230 | 28.41313 | 6733 ft | 278 kts | 179° |
| 2026-05-05 18:46 | 47.02391 | 28.41933 | 6376 ft | 270 kts | 150° |
| 2026-05-05 18:46 | 47.01021 | 28.43731 | 6009 ft | 266 kts | 122° |
| 2026-05-05 18:47 | 47.00242 | 28.46191 | 5659 ft | 268 kts | 109° |
| 2026-05-05 18:47 | 46.99665 | 28.48795 | 5310 ft | 268 kts | 107° |
| 2026-05-05 18:47 | 46.99129 | 28.51366 | 4959 ft | 267 kts | 107° |
| 2026-05-05 18:47 | 46.98599 | 28.53902 | 4609 ft | 253 kts | 108° |
| 2026-05-05 18:48 | 46.97985 | 28.56230 | 4275 ft | 238 kts | 120° |
| 2026-05-05 18:48 | 46.96943 | 28.58041 | 3975 ft | 233 kts | 144° |
| 2026-05-05 18:48 | 46.95571 | 28.59313 | 3713 ft | 236 kts | 153° |
| 2026-05-05 18:48 | 46.94155 | 28.60491 | 3523 ft | 225 kts | 149° |
| 2026-05-05 18:49 | 46.93028 | 28.61950 | 3319 ft | 217 kts | 129° |
| 2026-05-05 18:49 | 46.92379 | 28.63895 | 2934 ft | 211 kts | 103° |
| 2026-05-05 18:49 | 46.92274 | 28.65997 | 2621 ft | 208 kts | 91° |
| 2026-05-05 18:49 | 46.92296 | 28.68095 | 2519 ft | 205 kts | 91° |
| 2026-05-05 18:50 | 46.92311 | 28.70157 | 2573 ft | 199 kts | 91° |
| 2026-05-05 18:50 | 46.92335 | 28.72227 | 2574 ft | 209 kts | 90° |
| 2026-05-05 18:50 | 46.92355 | 28.74325 | 2564 ft | 202 kts | 91° |
| 2026-05-05 18:50 | 46.92386 | 28.76340 | 2410 ft | 196 kts | 90° |
| 2026-05-05 18:51 | 46.92465 | 28.78333 | 2117 ft | 194 kts | 89° |
| 2026-05-05 18:51 | 46.92534 | 28.80282 | 1895 ft | 193 kts | 91° |
| 2026-05-05 18:51 | 46.92561 | 28.82200 | 1615 ft | 186 kts | 94° |
| 2026-05-05 18:51 | 46.92587 | 28.84094 | 1380 ft | 184 kts | 90° |
| 2026-05-05 18:52 | 46.92642 | 28.85916 | 1152 ft | 178 kts | 92° |
| 2026-05-05 18:52 | 46.92676 | 28.87697 | 890 ft | 172 kts | 92° |
| 2026-05-05 18:52 | 46.92709 | 28.89420 | 642 ft | 170 kts | 92° |
| 2026-05-05 18:52 | 46.92744 | 28.91106 | 418 ft | 166 kts | 91° |
| 2026-05-05 18:53 | 46.92772 | 28.92592 | 374 ft | 124 kts | 88° |
| 2026-05-05 18:53 | 46.92790 | 28.93652 | 343 ft | 86 kts | 87° |
| 2026-05-05 18:53 | 46.92805 | 28.94396 | 322 ft | 67 kts | 88° |
| 2026-05-05 18:53 | 46.92816 | 28.94970 | 309 ft | 36 kts | 88° |
| 2026-05-05 18:54 | 46.92848 | 28.95101 | 307 ft | 9 kts | 26° |
| 2026-05-05 18:54 | 46.92911 | 28.95110 | 307 ft | 9 kts | 358° |
| 2026-05-05 18:54 | 46.92977 | 28.95102 | 310 ft | 9 kts | 350° |
| 2026-05-05 18:54 | 46.93018 | 28.95047 | 311 ft | 10 kts | 288° |
| 2026-05-05 18:55 | 46.93032 | 28.94924 | 312 ft | 13 kts | 277° |
| 2026-05-05 18:55 | 46.93043 | 28.94781 | 313 ft | 16 kts | 276° |
| 2026-05-05 18:55 | 46.93058 | 28.94597 | 316 ft | 18 kts | 277° |
| 2026-05-05 18:55 | 46.93071 | 28.94433 | 319 ft | 15 kts | 277° |
| 2026-05-05 18:56 | 46.93083 | 28.94289 | 319 ft | 13 kts | 277° |
| 2026-05-05 18:56 | 46.93093 | 28.94166 | 322 ft | 11 kts | 277° |
| 2026-05-05 18:56 | 46.93100 | 28.94079 | 324 ft | 7 kts | 277° |
| 2026-05-05 18:56 | 46.93105 | 28.94026 | 326 ft | 5 kts | 277° |
| 2026-05-05 18:57 | 46.93112 | 28.93940 | 327 ft | 13 kts | 277° |
| 2026-05-05 18:57 | 46.93126 | 28.93767 | 330 ft | 20 kts | 277° |
| 2026-05-05 18:57 | 46.93142 | 28.93566 | 349 ft | 18 kts | 276° |
| 2026-05-05 18:57 | 46.93167 | 28.93457 | 354 ft | 3 kts | 326° |
| 2026-05-05 18:58 | 46.93198 | 28.93451 | 354 ft | 8 kts | 359° |
| 2026-05-05 18:58 | 46.93266 | 28.93460 | 350 ft | 10 kts | 7° |
| 2026-05-05 18:58 | 46.93337 | 28.93473 | 347 ft | 10 kts | 7° |
| 2026-05-05 18:58 | 46.93399 | 28.93479 | 347 ft | 6 kts | 346° |
| 2026-05-05 18:59 | 46.93418 | 28.93451 | 348 ft | 2 kts | 301° |
| 2026-05-05 18:59 | 46.93424 | 28.93428 | 351 ft | 3 kts | 289° |
| 2026-05-05 18:59 | 46.93432 | 28.93372 | 348 ft | 8 kts | 280° |
| 2026-05-05 18:59 | 46.93441 | 28.93281 | 351 ft | 9 kts | 277° |
| 2026-05-05 19:00 | 46.93448 | 28.93191 | 356 ft | 8 kts | 276° |
| 2026-05-05 19:00 | 46.93453 | 28.93118 | 358 ft | 6 kts | 276° |
| 2026-05-05 19:00 | 46.93461 | 28.93055 | 357 ft | 7 kts | 283° |
| 2026-05-05 19:00 | 46.93468 | 28.92988 | 356 ft | 4 kts | 267° |
| 2026-05-05 19:01 | 46.93457 | 28.92963 | 357 ft | 3 kts | 223° |
| 2026-05-05 19:01 | 46.93436 | 28.92956 | 358 ft | 1 kts | 188° |
| 2026-05-05 19:01 | 46.93429 | 28.92955 | 359 ft | 1 kts | 187° |
| 2026-05-05 19:01 | 46.93426 | 28.92954 | 357 ft | 0 kts | 187° |
| 2026-05-05 19:08 | 0.00485 | 0.00000 | 53808 ft | 0 kts | 0° |